createdAt,value
2023-02-26T00:01:15.055Z,1.45
2023-02-26T00:03:42.052Z,1.50
2023-02-26T00:06:09.514Z,2.08
2023-02-26T00:08:36.534Z,1.85
2023-02-26T00:11:06.774Z,1.50
2023-02-26T00:13:33.843Z,1.38
2023-02-26T00:16:01.899Z,1.55
2023-02-26T00:18:29.189Z,1.27
2023-02-26T00:20:56.108Z,1.75
2023-02-26T00:23:24.101Z,1.48
2023-02-26T00:25:50.738Z,1.98
2023-02-26T00:28:17.729Z,1.90
2023-02-26T00:30:45.599Z,2.10
2023-02-26T00:33:12.401Z,3.30
2023-02-26T00:35:39.294Z,2.95
2023-02-26T00:38:09.272Z,2.40
2023-02-26T00:40:48.126Z,4.30
2023-02-26T00:43:24.708Z,8.98
2023-02-26T00:46:03.877Z,5.47
2023-02-26T00:48:49.182Z,5.70
2023-02-26T00:51:31.148Z,3.88
2023-02-26T00:54:19.509Z,1.95
2023-02-26T00:56:46.085Z,2.30
2023-02-26T00:59:12.683Z,2.13
2023-02-26T01:01:39.781Z,2.10
2023-02-26T01:04:07.071Z,2.70
2023-02-26T01:06:38.441Z,1.45
2023-02-26T01:09:08.003Z,2.28
2023-02-26T01:14:04.484Z,1.88
2023-02-26T01:16:38.173Z,1.60
2023-02-26T01:19:33.756Z,1.60
2023-02-26T01:22:07.963Z,1.50
2023-02-26T01:24:36.430Z,1.65
2023-02-26T01:27:03.598Z,1.20
2023-02-26T01:29:30.382Z,1.48
2023-02-26T01:32:15.956Z,1.02
2023-02-26T01:34:47.245Z,1.17
2023-02-26T01:37:34.184Z,1.45
2023-02-26T01:40:51.467Z,1.48
2023-02-26T01:43:28.845Z,1.38
2023-02-26T01:46:05.450Z,1.50
2023-02-26T01:48:47.239Z,1.58
2023-02-26T01:51:13.964Z,1.55
2023-02-26T01:53:40.560Z,1.73
2023-02-26T01:56:19.499Z,1.50
2023-02-26T01:58:50.076Z,1.33
2023-02-26T02:01:16.658Z,1.55
2023-02-26T02:03:43.600Z,1.23
2023-02-26T02:06:18.171Z,1.38
2023-02-26T02:08:45.560Z,1.35
2023-02-26T02:11:13.234Z,1.48
2023-02-26T02:13:45.987Z,1.67
2023-02-26T02:16:37.178Z,1.25
2023-02-26T02:19:10.077Z,1.45
2023-02-26T02:21:54.356Z,1.60
2023-02-26T02:24:28.899Z,1.25
2023-02-26T02:27:18.969Z,1.60
2023-02-26T02:30:24.157Z,1.52
2023-02-26T02:33:15.066Z,1.33
2023-02-26T02:35:48.611Z,1.60
2023-02-26T02:38:21.410Z,2.05
2023-02-26T02:40:55.120Z,1.40
2023-02-26T02:43:28.752Z,1.45
2023-02-26T02:46:04.120Z,1.80
2023-02-26T02:48:42.349Z,1.58
2023-02-26T02:51:53.788Z,1.63
2023-02-26T02:54:26.593Z,1.27
2023-02-26T02:57:04.468Z,1.35
2023-02-26T02:59:45.467Z,1.50
2023-02-26T03:02:33.846Z,2.67
2023-02-26T03:05:00.584Z,2.17
2023-02-26T03:07:33.298Z,1.27
2023-02-26T03:10:00.197Z,1.75
2023-02-26T03:12:31.172Z,1.60
2023-02-26T03:14:58.423Z,1.55
2023-02-26T03:18:09.823Z,1.48
2023-02-26T03:20:47.202Z,1.25
2023-02-26T03:23:16.863Z,2.03
2023-02-26T03:28:41.835Z,1.15
2023-02-26T03:31:21.009Z,1.45
2023-02-26T03:34:00.390Z,1.65
2023-02-26T03:36:31.801Z,1.38
2023-02-26T03:39:23.023Z,1.50
2023-02-26T03:42:08.355Z,1.13
2023-02-26T03:44:59.144Z,1.13
2023-02-26T03:47:27.414Z,1.83
2023-02-26T03:50:13.273Z,1.60
2023-02-26T03:52:50.689Z,1.42
2023-02-26T03:55:32.519Z,1.10
2023-02-26T03:58:06.132Z,1.27
2023-02-26T04:00:46.362Z,1.60
2023-02-26T04:03:19.312Z,1.42
2023-02-26T04:05:51.629Z,1.48
2023-02-26T04:08:20.793Z,1.35
2023-02-26T04:11:06.210Z,1.50
2023-02-26T04:13:33.340Z,1.48
2023-02-26T04:16:01.147Z,1.80
2023-02-26T04:18:28.609Z,1.15
2023-02-26T04:20:55.979Z,1.05
2023-02-26T04:23:22.698Z,1.05
2023-02-26T04:25:49.460Z,1.00
2023-02-26T04:28:16.847Z,1.83
2023-02-26T04:30:43.950Z,1.42
2023-02-26T04:33:13.829Z,1.25
2023-02-26T04:35:40.625Z,1.55
2023-02-26T04:38:07.663Z,1.55
2023-02-26T04:40:34.356Z,1.20
2023-02-26T04:43:00.987Z,1.33
2023-02-26T04:45:32.050Z,1.23
2023-02-26T04:47:58.643Z,1.10
2023-02-26T04:50:25.328Z,1.10
2023-02-26T04:52:53.405Z,1.48
2023-02-26T04:55:20.742Z,1.08
2023-02-26T04:57:47.391Z,1.30
2023-02-26T05:00:18.529Z,1.10
2023-02-26T05:02:45.230Z,1.40
2023-02-26T05:05:15.736Z,0.98
2023-02-26T05:07:42.334Z,1.20
2023-02-26T05:10:12.964Z,1.13
2023-02-26T05:12:39.991Z,1.10
2023-02-26T05:15:07.133Z,1.75
2023-02-26T05:17:33.809Z,1.20
2023-02-26T05:20:00.371Z,1.25
2023-02-26T05:22:26.990Z,1.38
2023-02-26T05:24:53.783Z,1.65
2023-02-26T05:27:20.408Z,1.23
2023-02-26T05:29:47.785Z,1.20
2023-02-26T05:32:14.936Z,1.48
2023-02-26T05:34:41.604Z,1.10
2023-02-26T05:37:08.180Z,1.08
2023-02-26T05:39:34.747Z,1.20
2023-02-26T05:42:01.448Z,1.40
2023-02-26T05:44:28.327Z,1.60
2023-02-26T05:46:55.141Z,0.90
2023-02-26T05:49:21.947Z,1.40
2023-02-26T05:51:48.712Z,1.10
2023-02-26T05:54:15.409Z,1.30
2023-02-26T05:56:42.038Z,1.25
2023-02-26T05:59:08.987Z,1.00
2023-02-26T06:01:37.365Z,1.17
2023-02-26T06:04:05.488Z,1.30
2023-02-26T06:06:32.954Z,1.10
2023-02-26T06:09:01.273Z,1.10
2023-02-26T06:11:33.958Z,1.25
2023-02-26T06:14:00.991Z,0.98
2023-02-26T06:16:28.604Z,0.90
2023-02-26T06:18:55.298Z,1.08
2023-02-26T06:21:22.093Z,1.30
2023-02-26T06:23:48.643Z,1.00
2023-02-26T06:26:15.448Z,0.90
2023-02-26T06:28:42.061Z,1.08
2023-02-26T06:31:08.706Z,1.38
2023-02-26T06:33:35.294Z,1.67
2023-02-26T06:36:02.538Z,1.20
2023-02-26T06:38:29.536Z,1.52
2023-02-26T06:40:56.176Z,1.23
2023-02-26T06:43:22.735Z,1.00
2023-02-26T06:45:49.631Z,1.08
2023-02-26T06:48:16.426Z,1.45
2023-02-26T06:50:43.201Z,1.08
2023-02-26T06:53:09.879Z,1.10
2023-02-26T06:55:36.951Z,1.15
2023-02-26T06:58:03.680Z,1.23
2023-02-26T07:00:30.444Z,1.20
2023-02-26T07:02:58.335Z,1.52
2023-02-26T07:05:25.319Z,1.25
2023-02-26T07:07:52.121Z,0.88
2023-02-26T07:10:18.922Z,1.33
2023-02-26T07:12:45.610Z,1.50
2023-02-26T07:15:12.414Z,1.70
2023-02-26T07:17:39.181Z,0.95
2023-02-26T07:20:13.102Z,1.13
2023-02-26T07:22:39.884Z,1.27
2023-02-26T07:25:07.555Z,2.13
2023-02-26T07:27:34.647Z,1.30
2023-02-26T07:30:01.534Z,1.27
2023-02-26T07:32:28.777Z,1.02
2023-02-26T07:34:55.505Z,1.05
2023-02-26T07:37:22.497Z,1.30
2023-02-26T07:39:49.367Z,1.40
2023-02-26T07:42:16.511Z,0.93
2023-02-26T07:44:43.523Z,3.85
2023-02-26T07:47:10.946Z,1.13
2023-02-26T07:49:38.263Z,0.95
2023-02-26T07:52:07.086Z,1.70
2023-02-26T07:54:35.318Z,0.75
2023-02-26T07:57:02.125Z,0.98
2023-02-26T07:59:28.886Z,1.20
2023-02-26T08:01:55.845Z,1.00
2023-02-26T08:04:23.192Z,0.80
2023-02-26T08:06:50.029Z,1.13
2023-02-26T08:09:16.893Z,1.13
2023-02-26T08:11:43.596Z,1.10
2023-02-26T08:14:11.979Z,1.50
2023-02-26T08:16:38.663Z,1.60
2023-02-26T08:19:05.514Z,1.88
2023-02-26T08:21:32.249Z,1.30
2023-02-26T08:23:58.940Z,1.20
2023-02-26T08:26:25.984Z,3.10
2023-02-26T08:28:53.394Z,1.23
2023-02-26T08:31:20.279Z,1.10
2023-02-26T08:33:48.020Z,0.85
2023-02-26T08:36:14.783Z,0.77
2023-02-26T08:38:41.501Z,0.93
2023-02-26T08:41:08.393Z,1.02
2023-02-26T08:43:35.285Z,1.10
2023-02-26T08:46:01.999Z,1.10
2023-02-26T08:48:28.855Z,1.00
2023-02-26T08:50:55.598Z,1.10
2023-02-26T08:53:22.537Z,0.88
2023-02-26T08:55:53.473Z,1.33
2023-02-26T08:58:20.657Z,1.40
2023-02-26T09:00:47.781Z,3.33
2023-02-26T09:03:14.921Z,37.63
2023-02-26T09:05:41.604Z,8.88
2023-02-26T09:08:09.601Z,1.35
2023-02-26T09:10:36.366Z,1.02
2023-02-26T09:13:03.266Z,1.05
2023-02-26T09:15:30.107Z,1.63
2023-02-26T09:17:58.123Z,1.15
2023-02-26T09:20:25.007Z,1.25
2023-02-26T09:22:51.774Z,1.17
2023-02-26T09:25:18.494Z,1.20
2023-02-26T09:27:45.275Z,1.00
2023-02-26T09:30:12.904Z,1.10
2023-02-26T09:32:39.880Z,1.20
2023-02-26T09:35:07.151Z,1.23
2023-02-26T09:37:34.144Z,1.20
2023-02-26T09:40:00.964Z,1.15
2023-02-26T09:42:49.369Z,2.55
2023-02-26T09:45:30.768Z,2.10
2023-02-26T09:47:59.263Z,0.77
2023-02-26T09:50:38.128Z,1.10
2023-02-26T09:53:10.671Z,1.33
2023-02-26T09:55:43.846Z,0.75
2023-02-26T09:58:37.496Z,1.10
2023-02-26T10:01:21.385Z,0.98
2023-02-26T10:04:16.220Z,1.30
2023-02-26T10:07:04.540Z,0.80
2023-02-26T10:10:01.841Z,0.80
2023-02-26T10:12:33.632Z,2.50
2023-02-26T10:15:09.640Z,1.60
2023-02-26T10:17:55.689Z,2.15
2023-02-26T10:20:47.853Z,1.10
2023-02-26T10:23:43.659Z,1.13
2023-02-26T10:26:20.073Z,1.58
2023-02-26T10:29:23.052Z,1.27
2023-02-26T10:32:45.706Z,1.80
2023-02-26T10:35:17.148Z,1.45
2023-02-26T10:38:03.002Z,2.63
2023-02-26T10:40:59.469Z,1.13
2023-02-26T10:43:40.363Z,0.85
2023-02-26T10:46:17.812Z,0.50
2023-02-26T10:49:09.360Z,1.10
2023-02-26T10:51:38.698Z,1.00
2023-02-26T10:54:16.941Z,1.00
2023-02-26T10:56:43.606Z,0.80
2023-02-26T10:59:10.534Z,1.10
2023-02-26T11:01:37.415Z,1.70
2023-02-26T11:04:09.465Z,0.90
2023-02-26T11:06:44.330Z,1.00
2023-02-26T11:09:36.605Z,1.10
2023-02-26T11:12:15.344Z,0.90
2023-02-26T11:14:43.555Z,0.70
2023-02-26T11:17:19.198Z,0.50
2023-02-26T11:20:01.092Z,0.55
2023-02-26T11:22:32.355Z,2.70
2023-02-26T11:24:59.860Z,4.00
2023-02-26T11:27:32.036Z,3.97
2023-02-26T11:30:19.116Z,3.55
2023-02-26T11:32:50.834Z,1.92
2023-02-26T11:35:19.120Z,1.52
2023-02-26T11:37:53.399Z,0.90
2023-02-26T11:40:32.553Z,1.08
2023-02-26T11:43:03.861Z,0.50
2023-02-26T11:45:30.668Z,1.45
2023-02-26T11:48:05.051Z,1.20
2023-02-26T11:50:38.986Z,0.70
2023-02-26T11:53:10.623Z,0.80
2023-02-26T11:55:44.525Z,0.52
2023-02-26T11:58:20.626Z,0.57
2023-02-26T12:00:49.764Z,0.90
2023-02-26T12:03:20.300Z,1.50
2023-02-26T12:05:47.208Z,0.85
2023-02-26T12:08:30.416Z,1.40
2023-02-26T12:11:23.817Z,1.17
2023-02-26T12:14:18.422Z,1.40
2023-02-26T12:17:07.927Z,1.33
2023-02-26T12:22:32.834Z,0.90
2023-02-26T12:25:05.655Z,1.23
2023-02-26T12:27:52.382Z,1.60
2023-02-26T12:30:38.274Z,1.40
2023-02-26T12:33:14.428Z,0.80
2023-02-26T12:36:10.704Z,1.08
2023-02-26T12:38:55.728Z,1.83
2023-02-26T12:41:57.817Z,0.77
2023-02-26T12:44:52.291Z,1.40
2023-02-26T12:47:47.644Z,0.90
2023-02-26T12:50:20.223Z,1.10
2023-02-26T12:53:14.216Z,1.55
2023-02-26T12:56:14.940Z,0.65
2023-02-26T12:59:02.675Z,0.77
2023-02-26T13:01:36.548Z,3.15
2023-02-26T13:04:09.059Z,3.13
2023-02-26T13:06:47.789Z,1.67
2023-02-26T13:09:23.347Z,1.20
2023-02-26T13:12:07.836Z,0.85
2023-02-26T13:14:56.013Z,0.80
2023-02-26T13:17:51.015Z,0.70
2023-02-26T13:20:25.155Z,1.05
2023-02-26T13:22:59.585Z,1.15
2023-02-26T13:25:51.906Z,1.40
2023-02-26T13:28:40.156Z,0.90
2023-02-26T13:31:20.097Z,0.80
2023-02-26T13:33:50.011Z,0.90
2023-02-26T13:36:19.385Z,1.13
2023-02-26T13:38:49.134Z,2.92
2023-02-26T13:41:22.592Z,1.00
2023-02-26T13:44:21.825Z,1.30
2023-02-26T13:47:17.023Z,1.42
2023-02-26T13:50:20.454Z,1.13
2023-02-26T13:52:56.393Z,1.35
2023-02-26T13:55:45.481Z,1.15
2023-02-26T13:58:24.476Z,1.27
2023-02-26T14:01:04.130Z,1.00
2023-02-26T14:06:23.786Z,1.00
2023-02-26T14:08:54.472Z,1.02
2023-02-26T14:11:44.559Z,1.30
2023-02-26T14:14:17.205Z,1.13
2023-02-26T14:16:49.342Z,1.10
2023-02-26T14:19:34.431Z,1.10
2023-02-26T14:22:25.863Z,1.02
2023-02-26T14:25:17.519Z,0.90
2023-02-26T14:27:47.359Z,1.27
2023-02-26T14:30:27.831Z,0.93
2023-02-26T14:33:08.168Z,0.80
2023-02-26T14:35:40.635Z,0.80
2023-02-26T14:38:15.786Z,0.88
2023-02-26T14:41:18.835Z,0.95
2023-02-26T14:43:54.597Z,0.80
2023-02-26T14:46:21.622Z,2.20
2023-02-26T14:48:48.587Z,1.85
2023-02-26T14:51:25.197Z,1.20
2023-02-26T14:53:57.124Z,1.20
2023-02-26T14:57:13.299Z,0.95
2023-02-26T15:00:10.806Z,0.90
2023-02-26T15:02:55.579Z,0.68
2023-02-26T15:05:38.669Z,1.40
2023-02-26T15:08:22.593Z,0.90
2023-02-26T15:11:19.992Z,0.98
2023-02-26T15:14:24.267Z,0.90
2023-02-26T15:16:53.754Z,1.20
2023-02-26T15:19:26.481Z,0.65
2023-02-26T15:21:59.948Z,0.70
2023-02-26T15:24:29.622Z,1.00
2023-02-26T15:29:31.532Z,0.82
2023-02-26T15:32:05.761Z,1.00
2023-02-26T15:34:34.149Z,2.03
2023-02-26T15:37:01.365Z,0.82
2023-02-26T15:39:28.132Z,1.60
2023-02-26T15:41:56.216Z,1.20
2023-02-26T15:44:27.652Z,2.53
2023-02-26T15:47:03.526Z,1.48
2023-02-26T15:49:38.284Z,0.90
2023-02-26T15:52:07.614Z,1.13
2023-02-26T15:54:54.526Z,1.25
2023-02-26T15:57:24.297Z,0.80
2023-02-26T15:59:54.124Z,1.38
2023-02-26T16:02:32.352Z,8.73
2023-02-26T16:04:59.468Z,2.08
2023-02-26T16:07:26.329Z,1.30
2023-02-26T16:09:54.851Z,0.88
2023-02-26T16:12:36.505Z,1.65
2023-02-26T16:15:08.296Z,0.82
2023-02-26T16:17:39.732Z,0.68
2023-02-26T16:20:14.923Z,1.40
2023-02-26T16:22:56.578Z,1.00
2023-02-26T16:25:29.869Z,1.05
2023-02-26T16:28:06.276Z,1.70
2023-02-26T16:30:38.805Z,1.20
2023-02-26T16:33:11.952Z,1.55
2023-02-26T16:35:46.692Z,2.20
2023-02-26T16:38:25.676Z,1.80
2023-02-26T16:41:10.966Z,2.53
2023-02-26T16:43:49.515Z,2.10
2023-02-26T16:46:37.666Z,1.65
2023-02-26T16:49:04.379Z,2.22
2023-02-26T16:51:34.728Z,1.55
2023-02-26T16:54:07.574Z,1.52
2023-02-26T16:56:41.030Z,1.60
2023-02-26T16:59:13.752Z,1.35
2023-02-26T17:01:49.966Z,1.80
2023-02-26T17:04:19.615Z,1.23
2023-02-26T17:09:29.420Z,1.10
2023-02-26T17:12:45.899Z,1.33
2023-02-26T17:15:21.415Z,5.55
2023-02-26T17:17:48.697Z,4.68
2023-02-26T17:20:15.658Z,3.05
2023-02-26T17:22:44.936Z,1.75
2023-02-26T17:27:43.352Z,2.10
2023-02-26T17:30:18.748Z,2.22
2023-02-26T17:32:45.515Z,2.90
2023-02-26T17:35:16.926Z,3.05
2023-02-26T17:37:46.787Z,6.18
2023-02-26T17:40:36.478Z,5.10
2023-02-26T17:43:04.651Z,3.90
2023-02-26T17:45:33.129Z,4.68
2023-02-26T17:48:00.335Z,3.63
2023-02-26T17:50:50.392Z,3.20
2023-02-26T17:53:18.897Z,3.10
2023-02-26T17:55:47.551Z,2.80
2023-02-26T17:58:28.812Z,3.65
2023-02-26T18:00:56.315Z,4.32
2023-02-26T18:03:23.153Z,3.10
2023-02-26T18:05:52.145Z,3.25
2023-02-26T18:08:25.203Z,2.70
2023-02-26T18:10:52.715Z,3.17
2023-02-26T18:13:20.254Z,4.85
2023-02-26T18:15:47.863Z,4.63
2023-02-26T18:18:15.880Z,4.78
2023-02-26T18:20:44.066Z,3.92
2023-02-26T18:23:13.804Z,2.97
2023-02-26T18:25:41.400Z,3.10
2023-02-26T18:28:18.709Z,3.45
2023-02-26T18:30:47.153Z,3.25
2023-02-26T18:33:17.193Z,5.15
2023-02-26T18:35:47.115Z,3.25
2023-02-26T18:38:16.087Z,3.10
2023-02-26T18:40:43.923Z,2.17
2023-02-26T18:43:12.714Z,1.35
2023-02-26T18:45:40.305Z,1.75
2023-02-26T18:48:07.037Z,1.55
2023-02-26T18:50:34.055Z,1.70
2023-02-26T18:53:00.888Z,1.83
2023-02-26T18:55:27.568Z,2.80
2023-02-26T18:57:54.338Z,2.80
2023-02-26T19:00:21.745Z,2.45
2023-02-26T19:02:48.539Z,2.67
2023-02-26T19:05:16.515Z,2.83
2023-02-26T19:07:43.478Z,2.65
2023-02-26T19:10:14.647Z,1.98
2023-02-26T19:12:42.018Z,2.78
2023-02-26T19:15:10.214Z,2.63
2023-02-26T19:17:36.889Z,2.45
2023-02-26T19:20:03.849Z,2.00
2023-02-26T19:22:30.618Z,5.88
2023-02-26T19:24:57.254Z,2.97
2023-02-26T19:27:23.948Z,2.03
2023-02-26T19:29:50.711Z,2.58
2023-02-26T19:32:17.505Z,4.75
2023-02-26T19:34:44.357Z,5.95
2023-02-26T19:37:11.192Z,4.95
2023-02-26T19:39:38.403Z,3.88
2023-02-26T19:42:05.712Z,2.88
2023-02-26T19:44:32.639Z,2.20
2023-02-26T19:47:00.079Z,2.25
2023-02-26T19:49:27.424Z,2.33
2023-02-26T19:51:54.098Z,2.00
2023-02-26T19:54:21.270Z,1.58
2023-02-26T19:56:49.591Z,2.08
2023-02-26T19:59:16.826Z,1.40
2023-02-26T20:01:44.025Z,1.40
2023-02-26T20:04:10.797Z,1.40
2023-02-26T20:06:37.976Z,1.35
2023-02-26T20:09:07.244Z,1.40
2023-02-26T20:11:34.715Z,1.50
2023-02-26T20:14:02.447Z,1.20
2023-02-26T20:16:29.254Z,2.20
2023-02-26T20:18:55.879Z,3.10
2023-02-26T20:21:23.383Z,2.20
2023-02-26T20:23:50.502Z,3.10
2023-02-26T20:26:17.236Z,2.13
2023-02-26T20:28:44.546Z,2.67
2023-02-26T20:31:11.790Z,2.40
2023-02-26T20:33:39.538Z,2.83
2023-02-26T20:36:09.359Z,1.80
2023-02-26T20:38:36.202Z,2.15
2023-02-26T20:41:03.643Z,1.65
2023-02-26T20:43:30.375Z,1.95
2023-02-26T20:45:57.060Z,2.25
2023-02-26T20:48:24.760Z,2.85
2023-02-26T20:50:53.668Z,3.45
2023-02-26T20:53:21.637Z,2.85
2023-02-26T20:55:48.907Z,3.13
2023-02-26T20:58:16.148Z,2.30
2023-02-26T21:00:43.740Z,3.00
2023-02-26T21:03:10.563Z,1.95
2023-02-26T21:05:38.627Z,2.10
2023-02-26T21:08:05.768Z,2.38
2023-02-26T21:10:32.808Z,2.53
2023-02-26T21:12:59.900Z,2.63
2023-02-26T21:15:26.756Z,2.97
2023-02-26T21:17:53.683Z,2.85
2023-02-26T21:20:22.307Z,2.60
2023-02-26T21:22:49.646Z,3.20
2023-02-26T21:25:16.720Z,3.53
2023-02-26T21:27:43.798Z,2.80
2023-02-26T21:30:12.255Z,2.60
2023-02-26T21:32:40.145Z,3.03
2023-02-26T21:35:09.007Z,3.28
2023-02-26T21:37:39.082Z,2.88
2023-02-26T21:40:06.690Z,3.20
2023-02-26T21:42:33.521Z,3.13
2023-02-26T21:45:00.352Z,3.53
2023-02-26T21:47:27.003Z,3.38
2023-02-26T21:49:53.823Z,3.60
2023-02-26T21:52:20.555Z,3.97
2023-02-26T21:54:47.232Z,4.43
2023-02-26T21:57:14.060Z,4.88
2023-02-26T21:59:40.877Z,5.30
2023-02-26T22:02:07.792Z,4.72
2023-02-26T22:04:34.849Z,4.10
2023-02-26T22:07:01.583Z,4.20
2023-02-26T22:09:28.286Z,4.60
2023-02-26T22:11:55.025Z,3.25
2023-02-26T22:14:22.031Z,3.50
2023-02-26T22:16:48.736Z,3.17
2023-02-26T22:19:15.409Z,3.70
2023-02-26T22:21:42.105Z,3.97
2023-02-26T22:24:09.246Z,3.55
2023-02-26T22:26:36.277Z,3.15
2023-02-26T22:29:03.734Z,5.60
2023-02-26T22:31:32.282Z,8.57
2023-02-26T22:33:59.849Z,4.15
2023-02-26T22:36:27.667Z,4.57
2023-02-26T22:38:54.553Z,4.97
2023-02-26T22:41:21.265Z,5.72
2023-02-26T22:43:48.019Z,5.68
2023-02-26T22:46:17.020Z,6.22
2023-02-26T22:48:44.552Z,5.75
2023-02-26T22:51:11.228Z,9.77
2023-02-26T22:53:37.982Z,6.13
2023-02-26T22:56:04.982Z,10.82
2023-02-26T22:58:31.828Z,14.10
2023-02-26T23:01:05.135Z,11.57
2023-02-26T23:03:32.556Z,9.13
2023-02-26T23:06:00.188Z,11.25
2023-02-26T23:08:27.973Z,12.57
2023-02-26T23:10:59.198Z,15.90
2023-02-26T23:13:27.274Z,13.80
2023-02-26T23:15:54.083Z,20.73
2023-02-26T23:18:21.097Z,9.02
2023-02-26T23:20:49.108Z,6.53
2023-02-26T23:23:16.325Z,4.43
2023-02-26T23:25:43.795Z,2.88
2023-02-26T23:28:10.591Z,38.67
2023-02-26T23:30:37.358Z,30.80
2023-02-26T23:33:05.392Z,17.67
2023-02-26T23:35:32.069Z,32.92
2023-02-26T23:37:58.696Z,20.90
2023-02-26T23:40:25.625Z,17.73
2023-02-26T23:42:52.988Z,22.08
2023-02-26T23:45:19.748Z,17.02
2023-02-26T23:47:46.424Z,14.70
2023-02-26T23:50:13.390Z,12.02
2023-02-26T23:52:40.144Z,17.83
2023-02-26T23:55:07.582Z,24.10
2023-02-26T23:57:34.340Z,4.35
